sensor_id;sensor_type;location;lat;lon;timestamp;P1;durP1;ratioP1;P2;durP2;ratioP2
44987;SDS011;35735;52.226;21.254;2023-07-30T00:01:16;4.22;;;2.40;;
44987;SDS011;35735;52.226;21.254;2023-07-30T00:06:16;3.83;;;2.45;;
44987;SDS011;35735;52.226;21.254;2023-07-30T00:11:17;3.45;;;2.53;;
44987;SDS011;35735;52.226;21.254;2023-07-30T00:16:17;3.92;;;2.47;;
44987;SDS011;35735;52.226;21.254;2023-07-30T00:21:18;5.55;;;2.78;;
44987;SDS011;35735;52.226;21.254;2023-07-30T00:26:18;2.97;;;2.53;;
44987;SDS011;35735;52.226;21.254;2023-07-30T00:31:19;4.45;;;2.58;;
44987;SDS011;35735;52.226;21.254;2023-07-30T00:36:20;3.92;;;2.80;;
44987;SDS011;35735;52.226;21.254;2023-07-30T00:41:20;6.05;;;3.40;;
44987;SDS011;35735;52.226;21.254;2023-07-30T00:46:21;4.53;;;3.17;;
44987;SDS011;35735;52.226;21.254;2023-07-30T00:51:21;4.62;;;3.53;;
44987;SDS011;35735;52.226;21.254;2023-07-30T00:56:23;3.67;;;2.85;;
44987;SDS011;35735;52.226;21.254;2023-07-30T01:01:23;6.30;;;2.78;;
44987;SDS011;35735;52.226;21.254;2023-07-30T01:06:24;2.70;;;2.47;;
44987;SDS011;35735;52.226;21.254;2023-07-30T01:11:24;4.30;;;2.70;;
44987;SDS011;35735;52.226;21.254;2023-07-30T01:16:26;3.08;;;2.33;;
44987;SDS011;35735;52.226;21.254;2023-07-30T01:21:27;4.40;;;2.40;;
44987;SDS011;35735;52.226;21.254;2023-07-30T01:26:30;3.33;;;2.30;;
44987;SDS011;35735;52.226;21.254;2023-07-30T01:31:39;3.90;;;2.40;;
44987;SDS011;35735;52.226;21.254;2023-07-30T01:36:41;4.28;;;2.40;;
44987;SDS011;35735;52.226;21.254;2023-07-30T01:41:43;5.90;;;2.20;;
44987;SDS011;35735;52.226;21.254;2023-07-30T01:46:43;4.68;;;2.25;;
44987;SDS011;35735;52.226;21.254;2023-07-30T01:51:44;6.35;;;2.53;;
44987;SDS011;35735;52.226;21.254;2023-07-30T01:56:45;4.80;;;2.97;;
44987;SDS011;35735;52.226;21.254;2023-07-30T02:01:45;3.17;;;2.33;;
44987;SDS011;35735;52.226;21.254;2023-07-30T02:06:46;4.03;;;2.45;;
44987;SDS011;35735;52.226;21.254;2023-07-30T02:11:46;3.37;;;2.20;;
44987;SDS011;35735;52.226;21.254;2023-07-30T02:16:47;3.22;;;2.12;;
44987;SDS011;35735;52.226;21.254;2023-07-30T02:21:47;2.42;;;2.22;;
44987;SDS011;35735;52.226;21.254;2023-07-30T02:26:48;3.92;;;2.47;;
44987;SDS011;35735;52.226;21.254;2023-07-30T02:31:49;3.33;;;2.22;;
44987;SDS011;35735;52.226;21.254;2023-07-30T02:36:49;2.78;;;2.35;;
44987;SDS011;35735;52.226;21.254;2023-07-30T02:41:50;5.40;;;2.60;;
44987;SDS011;35735;52.226;21.254;2023-07-30T02:46:50;2.28;;;2.05;;
44987;SDS011;35735;52.226;21.254;2023-07-30T02:51:51;4.25;;;2.25;;
44987;SDS011;35735;52.226;21.254;2023-07-30T02:56:51;3.33;;;2.20;;
44987;SDS011;35735;52.226;21.254;2023-07-30T03:01:52;3.10;;;2.15;;
44987;SDS011;35735;52.226;21.254;2023-07-30T03:06:52;7.07;;;2.70;;
44987;SDS011;35735;52.226;21.254;2023-07-30T03:11:53;3.42;;;2.50;;
44987;SDS011;35735;52.226;21.254;2023-07-30T03:16:54;4.70;;;2.62;;
44987;SDS011;35735;52.226;21.254;2023-07-30T03:21:54;3.92;;;2.50;;
44987;SDS011;35735;52.226;21.254;2023-07-30T03:26:55;4.90;;;2.92;;
44987;SDS011;35735;52.226;21.254;2023-07-30T03:31:55;4.55;;;3.10;;
44987;SDS011;35735;52.226;21.254;2023-07-30T03:36:56;3.95;;;3.22;;
44987;SDS011;35735;52.226;21.254;2023-07-30T03:41:56;4.25;;;2.80;;
44987;SDS011;35735;52.226;21.254;2023-07-30T03:46:57;5.03;;;3.50;;
44987;SDS011;35735;52.226;21.254;2023-07-30T03:51:57;4.12;;;2.90;;
44987;SDS011;35735;52.226;21.254;2023-07-30T03:56:58;4.62;;;3.33;;
44987;SDS011;35735;52.226;21.254;2023-07-30T04:01:58;6.15;;;3.67;;
44987;SDS011;35735;52.226;21.254;2023-07-30T04:06:59;6.47;;;3.87;;
44987;SDS011;35735;52.226;21.254;2023-07-30T04:12:00;5.93;;;3.30;;
44987;SDS011;35735;52.226;21.254;2023-07-30T04:17:00;7.43;;;3.40;;
44987;SDS011;35735;52.226;21.254;2023-07-30T04:22:01;3.47;;;3.17;;
44987;SDS011;35735;52.226;21.254;2023-07-30T04:27:01;7.47;;;3.90;;
44987;SDS011;35735;52.226;21.254;2023-07-30T04:32:03;7.62;;;3.90;;
44987;SDS011;35735;52.226;21.254;2023-07-30T04:37:05;5.65;;;3.30;;
44987;SDS011;35735;52.226;21.254;2023-07-30T04:42:05;4.80;;;3.45;;
44987;SDS011;35735;52.226;21.254;2023-07-30T04:47:06;4.60;;;3.22;;
44987;SDS011;35735;52.226;21.254;2023-07-30T04:52:07;8.00;;;3.25;;
44987;SDS011;35735;52.226;21.254;2023-07-30T04:57:08;6.53;;;3.17;;
44987;SDS011;35735;52.226;21.254;2023-07-30T05:02:08;4.57;;;3.08;;
44987;SDS011;35735;52.226;21.254;2023-07-30T05:07:09;6.30;;;3.35;;
44987;SDS011;35735;52.226;21.254;2023-07-30T05:12:10;4.32;;;3.40;;
44987;SDS011;35735;52.226;21.254;2023-07-30T05:17:10;5.07;;;3.17;;
44987;SDS011;35735;52.226;21.254;2023-07-30T05:22:11;5.53;;;3.20;;
44987;SDS011;35735;52.226;21.254;2023-07-30T05:27:12;3.97;;;3.10;;
44987;SDS011;35735;52.226;21.254;2023-07-30T05:32:13;3.60;;;2.65;;
44987;SDS011;35735;52.226;21.254;2023-07-30T05:37:14;3.75;;;3.05;;
44987;SDS011;35735;52.226;21.254;2023-07-30T05:42:14;5.32;;;3.28;;
44987;SDS011;35735;52.226;21.254;2023-07-30T05:47:15;4.20;;;3.55;;
44987;SDS011;35735;52.226;21.254;2023-07-30T05:52:15;3.37;;;3.00;;
44987;SDS011;35735;52.226;21.254;2023-07-30T05:57:16;3.67;;;2.80;;
44987;SDS011;35735;52.226;21.254;2023-07-30T06:02:17;3.12;;;2.80;;
44987;SDS011;35735;52.226;21.254;2023-07-30T06:07:18;3.12;;;2.60;;
44987;SDS011;35735;52.226;21.254;2023-07-30T06:12:18;4.25;;;2.60;;
44987;SDS011;35735;52.226;21.254;2023-07-30T06:17:19;3.15;;;2.60;;
44987;SDS011;35735;52.226;21.254;2023-07-30T06:22:20;4.45;;;2.40;;
44987;SDS011;35735;52.226;21.254;2023-07-30T06:27:20;4.10;;;2.95;;
44987;SDS011;35735;52.226;21.254;2023-07-30T06:32:21;2.60;;;2.30;;
44987;SDS011;35735;52.226;21.254;2023-07-30T06:37:22;2.92;;;2.05;;
44987;SDS011;35735;52.226;21.254;2023-07-30T06:42:22;3.85;;;2.50;;
44987;SDS011;35735;52.226;21.254;2023-07-30T06:47:23;3.33;;;2.70;;
44987;SDS011;35735;52.226;21.254;2023-07-30T06:52:23;3.25;;;2.53;;
44987;SDS011;35735;52.226;21.254;2023-07-30T06:57:24;3.83;;;2.65;;
44987;SDS011;35735;52.226;21.254;2023-07-30T07:02:24;3.45;;;2.70;;
44987;SDS011;35735;52.226;21.254;2023-07-30T07:07:25;4.70;;;2.67;;
44987;SDS011;35735;52.226;21.254;2023-07-30T07:12:25;2.97;;;2.15;;
44987;SDS011;35735;52.226;21.254;2023-07-30T07:17:26;2.85;;;2.30;;
44987;SDS011;35735;52.226;21.254;2023-07-30T07:22:28;3.97;;;2.40;;
44987;SDS011;35735;52.226;21.254;2023-07-30T07:27:28;5.40;;;2.20;;
44987;SDS011;35735;52.226;21.254;2023-07-30T07:32:29;3.50;;;2.42;;
44987;SDS011;35735;52.226;21.254;2023-07-30T07:37:29;3.87;;;2.42;;
44987;SDS011;35735;52.226;21.254;2023-07-30T07:42:30;3.95;;;2.80;;
44987;SDS011;35735;52.226;21.254;2023-07-30T07:47:31;3.70;;;2.80;;
44987;SDS011;35735;52.226;21.254;2023-07-30T07:52:32;4.50;;;2.75;;
44987;SDS011;35735;52.226;21.254;2023-07-30T07:57:32;4.22;;;2.75;;
44987;SDS011;35735;52.226;21.254;2023-07-30T08:02:33;4.87;;;3.03;;
44987;SDS011;35735;52.226;21.254;2023-07-30T08:07:33;3.70;;;3.03;;
44987;SDS011;35735;52.226;21.254;2023-07-30T08:12:34;3.45;;;2.40;;
44987;SDS011;35735;52.226;21.254;2023-07-30T08:17:35;4.12;;;2.87;;
44987;SDS011;35735;52.226;21.254;2023-07-30T08:22:35;4.70;;;3.10;;
44987;SDS011;35735;52.226;21.254;2023-07-30T08:27:36;3.28;;;2.90;;
44987;SDS011;35735;52.226;21.254;2023-07-30T08:32:36;3.92;;;2.95;;
44987;SDS011;35735;52.226;21.254;2023-07-30T08:37:37;2.80;;;2.50;;
44987;SDS011;35735;52.226;21.254;2023-07-30T08:42:38;4.20;;;3.10;;
44987;SDS011;35735;52.226;21.254;2023-07-30T08:47:41;4.18;;;3.30;;
44987;SDS011;35735;52.226;21.254;2023-07-30T08:52:42;2.97;;;2.62;;
44987;SDS011;35735;52.226;21.254;2023-07-30T08:57:43;5.22;;;3.20;;
44987;SDS011;35735;52.226;21.254;2023-07-30T09:02:48;3.42;;;3.05;;
44987;SDS011;35735;52.226;21.254;2023-07-30T09:07:52;4.78;;;3.03;;
44987;SDS011;35735;52.226;21.254;2023-07-30T09:12:54;5.30;;;2.70;;
44987;SDS011;35735;52.226;21.254;2023-07-30T09:17:56;4.28;;;2.95;;
44987;SDS011;35735;52.226;21.254;2023-07-30T09:22:56;3.28;;;2.70;;
44987;SDS011;35735;52.226;21.254;2023-07-30T09:27:58;2.67;;;2.47;;
44987;SDS011;35735;52.226;21.254;2023-07-30T09:32:59;4.85;;;2.90;;
44987;SDS011;35735;52.226;21.254;2023-07-30T09:38:00;4.00;;;2.90;;
44987;SDS011;35735;52.226;21.254;2023-07-30T09:43:04;6.93;;;3.33;;
44987;SDS011;35735;52.226;21.254;2023-07-30T09:48:05;3.28;;;2.97;;
44987;SDS011;35735;52.226;21.254;2023-07-30T09:53:06;5.18;;;2.83;;
44987;SDS011;35735;52.226;21.254;2023-07-30T09:58:09;5.37;;;2.50;;
44987;SDS011;35735;52.226;21.254;2023-07-30T10:03:09;2.95;;;2.60;;
44987;SDS011;35735;52.226;21.254;2023-07-30T10:08:13;2.42;;;2.22;;
44987;SDS011;35735;52.226;21.254;2023-07-30T10:13:20;2.50;;;2.30;;
44987;SDS011;35735;52.226;21.254;2023-07-30T10:18:21;2.85;;;2.37;;
44987;SDS011;35735;52.226;21.254;2023-07-30T10:23:22;4.28;;;2.60;;
44987;SDS011;35735;52.226;21.254;2023-07-30T10:33:49;8.13;;;2.60;;
44987;SDS011;35735;52.226;21.254;2023-07-30T10:38:52;2.95;;;2.65;;
44987;SDS011;35735;52.226;21.254;2023-07-30T10:43:53;3.55;;;2.45;;
44987;SDS011;35735;52.226;21.254;2023-07-30T10:48:53;2.97;;;2.10;;
44987;SDS011;35735;52.226;21.254;2023-07-30T10:53:54;3.40;;;2.37;;
44987;SDS011;35735;52.226;21.254;2023-07-30T10:58:55;2.85;;;2.30;;
44987;SDS011;35735;52.226;21.254;2023-07-30T11:03:55;4.97;;;2.67;;
44987;SDS011;35735;52.226;21.254;2023-07-30T11:08:56;4.30;;;2.78;;
44987;SDS011;35735;52.226;21.254;2023-07-30T11:13:57;2.72;;;2.53;;
44987;SDS011;35735;52.226;21.254;2023-07-30T11:18:57;3.00;;;2.70;;
44987;SDS011;35735;52.226;21.254;2023-07-30T11:23:59;3.47;;;2.40;;
44987;SDS011;35735;52.226;21.254;2023-07-30T11:28:59;3.72;;;2.75;;
44987;SDS011;35735;52.226;21.254;2023-07-30T11:34:00;3.00;;;2.33;;
44987;SDS011;35735;52.226;21.254;2023-07-30T11:39:01;4.80;;;3.10;;
44987;SDS011;35735;52.226;21.254;2023-07-30T11:44:01;3.58;;;2.85;;
44987;SDS011;35735;52.226;21.254;2023-07-30T11:49:10;3.20;;;2.90;;
44987;SDS011;35735;52.226;21.254;2023-07-30T11:54:19;3.65;;;3.33;;
44987;SDS011;35735;52.226;21.254;2023-07-30T11:59:21;2.60;;;2.40;;
44987;SDS011;35735;52.226;21.254;2023-07-30T12:04:23;5.57;;;3.20;;
44987;SDS011;35735;52.226;21.254;2023-07-30T12:09:24;3.83;;;3.10;;
44987;SDS011;35735;52.226;21.254;2023-07-30T12:14:26;9.35;;;4.55;;
44987;SDS011;35735;52.226;21.254;2023-07-30T12:19:49;3.12;;;2.83;;
44987;SDS011;35735;52.226;21.254;2023-07-30T12:24:49;3.20;;;3.00;;
44987;SDS011;35735;52.226;21.254;2023-07-30T12:29:50;5.15;;;3.50;;
44987;SDS011;35735;52.226;21.254;2023-07-30T12:34:51;3.58;;;2.70;;
44987;SDS011;35735;52.226;21.254;2023-07-30T12:39:51;4.80;;;3.03;;
44987;SDS011;35735;52.226;21.254;2023-07-30T12:44:52;3.55;;;3.25;;
44987;SDS011;35735;52.226;21.254;2023-07-30T12:49:52;3.42;;;3.12;;
44987;SDS011;35735;52.226;21.254;2023-07-30T12:54:53;4.65;;;3.05;;
44987;SDS011;35735;52.226;21.254;2023-07-30T12:59:54;3.20;;;2.90;;
44987;SDS011;35735;52.226;21.254;2023-07-30T13:04:54;6.60;;;3.67;;
44987;SDS011;35735;52.226;21.254;2023-07-30T13:10:01;4.28;;;3.12;;
44987;SDS011;35735;52.226;21.254;2023-07-30T13:15:11;3.83;;;3.08;;
44987;SDS011;35735;52.226;21.254;2023-07-30T13:20:11;3.20;;;2.90;;
44987;SDS011;35735;52.226;21.254;2023-07-30T13:25:12;5.65;;;3.83;;
44987;SDS011;35735;52.226;21.254;2023-07-30T13:30:12;5.00;;;3.50;;
44987;SDS011;35735;52.226;21.254;2023-07-30T13:35:13;3.37;;;3.08;;
44987;SDS011;35735;52.226;21.254;2023-07-30T13:40:14;3.90;;;2.90;;
44987;SDS011;35735;52.226;21.254;2023-07-30T13:45:15;4.32;;;2.95;;
44987;SDS011;35735;52.226;21.254;2023-07-30T13:50:15;3.20;;;2.85;;
44987;SDS011;35735;52.226;21.254;2023-07-30T13:55:16;4.93;;;2.80;;
44987;SDS011;35735;52.226;21.254;2023-07-30T14:00:16;4.45;;;2.83;;
44987;SDS011;35735;52.226;21.254;2023-07-30T14:05:17;3.45;;;2.67;;
44987;SDS011;35735;52.226;21.254;2023-07-30T14:10:18;3.20;;;2.70;;
44987;SDS011;35735;52.226;21.254;2023-07-30T14:15:18;2.58;;;2.37;;
44987;SDS011;35735;52.226;21.254;2023-07-30T14:20:19;3.53;;;2.87;;
44987;SDS011;35735;52.226;21.254;2023-07-30T14:25:19;3.35;;;2.72;;
44987;SDS011;35735;52.226;21.254;2023-07-30T14:30:20;5.28;;;2.90;;
44987;SDS011;35735;52.226;21.254;2023-07-30T14:35:21;3.00;;;2.80;;
44987;SDS011;35735;52.226;21.254;2023-07-30T14:40:21;3.65;;;2.67;;
44987;SDS011;35735;52.226;21.254;2023-07-30T14:45:22;3.60;;;2.90;;
44987;SDS011;35735;52.226;21.254;2023-07-30T14:50:22;4.90;;;3.20;;
44987;SDS011;35735;52.226;21.254;2023-07-30T14:55:23;5.57;;;3.33;;
44987;SDS011;35735;52.226;21.254;2023-07-30T15:00:24;5.65;;;3.90;;
44987;SDS011;35735;52.226;21.254;2023-07-30T15:05:24;5.75;;;4.20;;
44987;SDS011;35735;52.226;21.254;2023-07-30T15:10:25;4.70;;;3.30;;
44987;SDS011;35735;52.226;21.254;2023-07-30T15:15:25;4.53;;;3.95;;
44987;SDS011;35735;52.226;21.254;2023-07-30T15:20:26;3.80;;;3.50;;
44987;SDS011;35735;52.226;21.254;2023-07-30T15:25:26;5.68;;;3.72;;
44987;SDS011;35735;52.226;21.254;2023-07-30T15:30:27;4.85;;;3.62;;
44987;SDS011;35735;52.226;21.254;2023-07-30T15:35:28;4.25;;;3.75;;
44987;SDS011;35735;52.226;21.254;2023-07-30T15:40:28;4.05;;;3.67;;
44987;SDS011;35735;52.226;21.254;2023-07-30T15:45:29;4.70;;;3.50;;
44987;SDS011;35735;52.226;21.254;2023-07-30T15:50:32;5.68;;;3.72;;
44987;SDS011;35735;52.226;21.254;2023-07-30T15:55:33;5.03;;;3.80;;
44987;SDS011;35735;52.226;21.254;2023-07-30T16:00:34;5.00;;;3.53;;
44987;SDS011;35735;52.226;21.254;2023-07-30T16:05:34;6.22;;;4.12;;
44987;SDS011;35735;52.226;21.254;2023-07-30T16:10:35;4.70;;;4.07;;
44987;SDS011;35735;52.226;21.254;2023-07-30T16:15:35;4.10;;;3.70;;
44987;SDS011;35735;52.226;21.254;2023-07-30T16:20:36;5.10;;;4.53;;
44987;SDS011;35735;52.226;21.254;2023-07-30T16:25:36;4.57;;;3.20;;
44987;SDS011;35735;52.226;21.254;2023-07-30T16:30:37;3.50;;;3.10;;
44987;SDS011;35735;52.226;21.254;2023-07-30T16:35:37;3.92;;;3.05;;
44987;SDS011;35735;52.226;21.254;2023-07-30T16:40:38;3.83;;;3.25;;
44987;SDS011;35735;52.226;21.254;2023-07-30T16:45:38;3.90;;;3.58;;
44987;SDS011;35735;52.226;21.254;2023-07-30T16:50:43;4.85;;;3.70;;
44987;SDS011;35735;52.226;21.254;2023-07-30T16:55:45;4.65;;;3.42;;
44987;SDS011;35735;52.226;21.254;2023-07-30T17:00:46;4.15;;;3.47;;
44987;SDS011;35735;52.226;21.254;2023-07-30T17:05:55;4.55;;;3.67;;
44987;SDS011;35735;52.226;21.254;2023-07-30T17:11:03;5.78;;;3.90;;
44987;SDS011;35735;52.226;21.254;2023-07-30T17:16:06;6.40;;;3.80;;
44987;SDS011;35735;52.226;21.254;2023-07-30T17:21:08;4.97;;;3.42;;
44987;SDS011;35735;52.226;21.254;2023-07-30T17:26:09;4.50;;;3.70;;
44987;SDS011;35735;52.226;21.254;2023-07-30T17:31:10;3.92;;;3.50;;
44987;SDS011;35735;52.226;21.254;2023-07-30T17:36:11;5.70;;;3.78;;
44987;SDS011;35735;52.226;21.254;2023-07-30T17:41:11;5.35;;;3.83;;
44987;SDS011;35735;52.226;21.254;2023-07-30T17:46:12;5.07;;;3.80;;
44987;SDS011;35735;52.226;21.254;2023-07-30T17:51:13;7.10;;;4.00;;
44987;SDS011;35735;52.226;21.254;2023-07-30T17:56:14;4.32;;;3.60;;
44987;SDS011;35735;52.226;21.254;2023-07-30T18:01:15;6.87;;;4.07;;
44987;SDS011;35735;52.226;21.254;2023-07-30T18:06:15;5.75;;;4.03;;
44987;SDS011;35735;52.226;21.254;2023-07-30T18:11:16;6.87;;;3.85;;
44987;SDS011;35735;52.226;21.254;2023-07-30T18:16:17;5.18;;;3.67;;
44987;SDS011;35735;52.226;21.254;2023-07-30T18:21:17;5.07;;;3.95;;
44987;SDS011;35735;52.226;21.254;2023-07-30T18:26:18;4.47;;;3.72;;
44987;SDS011;35735;52.226;21.254;2023-07-30T18:31:18;7.15;;;4.05;;
44987;SDS011;35735;52.226;21.254;2023-07-30T18:36:19;5.45;;;3.75;;
44987;SDS011;35735;52.226;21.254;2023-07-30T18:41:20;6.12;;;4.30;;
44987;SDS011;35735;52.226;21.254;2023-07-30T18:46:20;5.05;;;4.00;;
44987;SDS011;35735;52.226;21.254;2023-07-30T18:51:21;4.40;;;4.00;;
44987;SDS011;35735;52.226;21.254;2023-07-30T18:56:21;6.45;;;4.40;;
44987;SDS011;35735;52.226;21.254;2023-07-30T19:01:22;4.95;;;4.45;;
44987;SDS011;35735;52.226;21.254;2023-07-30T19:06:23;6.60;;;4.22;;
44987;SDS011;35735;52.226;21.254;2023-07-30T19:11:23;7.90;;;4.32;;
44987;SDS011;35735;52.226;21.254;2023-07-30T19:16:24;5.90;;;4.35;;
44987;SDS011;35735;52.226;21.254;2023-07-30T19:21:25;6.75;;;4.53;;
44987;SDS011;35735;52.226;21.254;2023-07-30T19:26:25;7.03;;;4.65;;
44987;SDS011;35735;52.226;21.254;2023-07-30T19:31:26;5.00;;;4.05;;
44987;SDS011;35735;52.226;21.254;2023-07-30T19:36:26;4.78;;;4.12;;
44987;SDS011;35735;52.226;21.254;2023-07-30T19:41:27;7.32;;;4.70;;
44987;SDS011;35735;52.226;21.254;2023-07-30T19:46:27;4.20;;;3.80;;
44987;SDS011;35735;52.226;21.254;2023-07-30T19:51:28;5.35;;;4.50;;
44987;SDS011;35735;52.226;21.254;2023-07-30T19:56:28;6.40;;;4.70;;
44987;SDS011;35735;52.226;21.254;2023-07-30T20:01:29;4.85;;;4.32;;
44987;SDS011;35735;52.226;21.254;2023-07-30T20:06:30;4.87;;;4.40;;
44987;SDS011;35735;52.226;21.254;2023-07-30T20:11:30;6.07;;;4.78;;
44987;SDS011;35735;52.226;21.254;2023-07-30T20:16:31;5.80;;;5.00;;
44987;SDS011;35735;52.226;21.254;2023-07-30T20:21:31;7.35;;;5.62;;
44987;SDS011;35735;52.226;21.254;2023-07-30T20:26:32;6.60;;;5.70;;
44987;SDS011;35735;52.226;21.254;2023-07-30T20:31:33;7.05;;;5.80;;
44987;SDS011;35735;52.226;21.254;2023-07-30T20:36:33;8.00;;;5.93;;
44987;SDS011;35735;52.226;21.254;2023-07-30T20:41:34;7.60;;;5.90;;
44987;SDS011;35735;52.226;21.254;2023-07-30T20:46:34;7.20;;;6.10;;
44987;SDS011;35735;52.226;21.254;2023-07-30T20:51:35;7.03;;;6.30;;
44987;SDS011;35735;52.226;21.254;2023-07-30T20:56:36;5.90;;;5.28;;
44987;SDS011;35735;52.226;21.254;2023-07-30T21:01:36;7.18;;;6.30;;
44987;SDS011;35735;52.226;21.254;2023-07-30T21:06:37;8.02;;;5.25;;
44987;SDS011;35735;52.226;21.254;2023-07-30T21:11:37;6.15;;;5.53;;
44987;SDS011;35735;52.226;21.254;2023-07-30T21:16:38;5.87;;;5.28;;
44987;SDS011;35735;52.226;21.254;2023-07-30T21:21:38;6.97;;;5.57;;
44987;SDS011;35735;52.226;21.254;2023-07-30T21:26:40;8.25;;;5.47;;
44987;SDS011;35735;52.226;21.254;2023-07-30T21:31:41;5.97;;;4.70;;
44987;SDS011;35735;52.226;21.254;2023-07-30T21:36:41;8.00;;;4.85;;
44987;SDS011;35735;52.226;21.254;2023-07-30T21:41:42;7.37;;;4.90;;
44987;SDS011;35735;52.226;21.254;2023-07-30T21:46:43;7.47;;;5.12;;
44987;SDS011;35735;52.226;21.254;2023-07-30T21:51:43;5.57;;;4.82;;
44987;SDS011;35735;52.226;21.254;2023-07-30T21:56:44;7.90;;;5.35;;
44987;SDS011;35735;52.226;21.254;2023-07-30T22:01:44;5.32;;;4.82;;
44987;SDS011;35735;52.226;21.254;2023-07-30T22:06:45;11.20;;;5.30;;
44987;SDS011;35735;52.226;21.254;2023-07-30T22:11:45;5.53;;;4.82;;
44987;SDS011;35735;52.226;21.254;2023-07-30T22:16:46;7.40;;;4.87;;
44987;SDS011;35735;52.226;21.254;2023-07-30T22:21:46;7.95;;;5.12;;
44987;SDS011;35735;52.226;21.254;2023-07-30T22:26:48;7.12;;;5.15;;
44987;SDS011;35735;52.226;21.254;2023-07-30T22:31:49;6.55;;;5.30;;
44987;SDS011;35735;52.226;21.254;2023-07-30T22:36:51;9.10;;;4.90;;
44987;SDS011;35735;52.226;21.254;2023-07-30T22:41:51;8.20;;;4.70;;
44987;SDS011;35735;52.226;21.254;2023-07-30T22:46:52;8.55;;;5.15;;
44987;SDS011;35735;52.226;21.254;2023-07-30T22:51:52;5.18;;;4.68;;
44987;SDS011;35735;52.226;21.254;2023-07-30T22:56:53;6.00;;;4.40;;
44987;SDS011;35735;52.226;21.254;2023-07-30T23:01:54;5.12;;;4.57;;
44987;SDS011;35735;52.226;21.254;2023-07-30T23:06:54;6.30;;;4.87;;
44987;SDS011;35735;52.226;21.254;2023-07-30T23:11:55;7.03;;;4.62;;
44987;SDS011;35735;52.226;21.254;2023-07-30T23:16:56;7.85;;;5.22;;
44987;SDS011;35735;52.226;21.254;2023-07-30T23:21:56;8.88;;;5.15;;
44987;SDS011;35735;52.226;21.254;2023-07-30T23:26:57;7.82;;;4.95;;
44987;SDS011;35735;52.226;21.254;2023-07-30T23:31:57;5.70;;;4.55;;
44987;SDS011;35735;52.226;21.254;2023-07-30T23:36:58;5.93;;;4.85;;
44987;SDS011;35735;52.226;21.254;2023-07-30T23:41:58;6.25;;;4.50;;
44987;SDS011;35735;52.226;21.254;2023-07-30T23:46:59;4.78;;;4.15;;
44987;SDS011;35735;52.226;21.254;2023-07-30T23:52:00;7.05;;;4.32;;
44987;SDS011;35735;52.226;21.254;2023-07-30T23:57:00;5.53;;;4.05;;
